LM326 / G-SAJG 7700 Squawk Report (27th of October, 2021)

Aircraft E145 Reg No. G-SAJG Age N/A
Model ERJ-145 Jet engines 2 First flight 04-99
Registered 08-03-19 Rollout 04-99 Delivered 23-04-99
Construction No. 145126 Line No. N/A Series EU
ADSHEX 400795 Airline name Loganair Owner N/A
Airfield based Glasgow~Renfrewshire~G First tracked N/A

Flight history for G-SAJG

Route Flight No Date Playback
Exeter (EXT) - Edinburgh (EDI) LM318 2021-11-29 20:31:00
Norwich (NWI) - Exeter (EXT) LM526 2021-11-29 19:34:00
Exeter (EXT) - Norwich (NWI) N/A 2021-11-29 17:05:00
Edinburgh (EDI) - Exeter (EXT) LM317 2021-11-29 16:28:00
Southampton (SOU) - Edinburgh (EDI) LM324 2021-11-29 13:25:00
Edinburgh (EDI) - Southampton (SOU) LM323 2021-11-29 12:29:00
Southampton (SOU) - Edinburgh (EDI) LM322 2021-11-29 09:51:00
Edinburgh (EDI) - Southampton (SOU) LM321 2021-11-29 08:51:00
Southampton (SOU) - Edinburgh (EDI) LM328 2021-11-28 22:48:00
Edinburgh (EDI) - Southampton (SOU) LM327 2021-11-28 20:34:00
Cardiff (CWL) - Edinburgh (EDI) N/A 2021-11-28 18:27:00
Edinburgh (EDI) - Cardiff (CWL) N/A 2021-11-28 17:25:00
Exeter (EXT) - Edinburgh (EDI) LM318 2021-11-26 13:34:00
Edinburgh (EDI) - Exeter (EXT) LM317 2021-11-26 12:35:00
Southampton (SOU) - Edinburgh (EDI) LM322 2021-11-26 09:57:00
Edinburgh (EDI) - Southampton (SOU) LM321 2021-11-26 08:56:00
Newquay Cornwall (NQY) - Edinburgh (EDI) LM380 2021-11-25 15:15:00
Edinburgh (EDI) - Newquay Cornwall (NQY) LM379 2021-11-25 14:01:00
Glasgow (GLA) - Edinburgh (EDI) N/A 2021-11-25 11:33:00
Southampton (SOU) - Glasgow (GLA) LM492 2021-11-25 11:20:00
Time Lat Lon Altitude Heading Speed Vertical Rate
2021-10-27 15:37:15 GMT 50.789433 -1.788956 0 256 128 -600
2021-10-27 15:37:15 GMT 50.789433 -1.788956 400 256 128 -600
2021-10-27 15:36:55 GMT 50.792099 -1.771186 625 256 132 -360
2021-10-27 15:36:51 GMT 50.792698 -1.767786 700 256 134 -720
2021-10-27 15:36:48 GMT 50.793011 -1.765084 725 257 135 -600
2021-10-27 15:36:46 GMT 50.793221 -1.763618 750 255 135 -540
2021-10-27 15:36:43 GMT 50.793812 -1.760609 775 256 125 -600
2021-10-27 15:36:39 GMT 50.794189 -1.757221 850 256 130 -660
2021-10-27 15:36:37 GMT 50.794621 -1.753976 850 250 133 -600
2021-10-27 15:36:35 GMT 50.794621 -1.753976 900 250 133 -600
2021-10-27 15:36:32 GMT 50.795120 -1.751706 900 253 135 -660
2021-10-27 15:36:28 GMT 50.795380 -1.748549 950 252 129 -660
2021-10-27 15:36:19 GMT 50.797882 -1.739463 1,075 256 131 -600
2021-10-27 15:36:18 GMT 50.797653 -1.738083 1,075 255 123 -480
2021-10-27 15:36:16 GMT 50.797653 -1.738083 1,075 255 123 -480
2021-10-27 15:36:07 GMT 50.799053 -1.729826 1,175 251 130 -600
2021-10-27 15:35:58 GMT 50.800156 -1.722170 1,275 255 136 -660
2021-10-27 15:35:55 GMT 50.800777 -1.719091 1,300 255 143 -300
2021-10-27 15:35:53 GMT 50.800777 -1.719091 1,325 255 143 -300
2021-10-27 15:35:44 GMT 50.802250 -1.709711 1,425 258 165 -360
2021-10-27 15:35:41 GMT 50.802349 -1.708218 1,450 257 172 -300
2021-10-27 15:35:32 GMT 50.804317 -1.697859 1,525 253 163 -60
2021-10-27 15:35:23 GMT 50.805630 -1.687172 1,575 255 162 -60
2021-10-27 15:35:22 GMT 50.805752 -1.683594 1,575 252 146 -60
2021-10-27 15:35:20 GMT 50.805752 -1.683594 1,575 252 146 -60
2021-10-27 15:35:11 GMT 50.808220 -1.676184 1,575 258 213 0
2021-10-27 15:35:08 GMT 50.808247 -1.674302 1,600 255 160 60
2021-10-27 15:34:59 GMT 50.809975 -1.662031 1,600 254 160 60
2021-10-27 15:34:58 GMT 50.809975 -1.662031 1,600 254 153 0
2021-10-27 15:34:55 GMT 50.810589 -1.654969 1,600 249 114 0
2021-10-27 15:34:45 GMT 50.812332 -1.649705 1,600 254 166 60
2021-10-27 15:34:44 GMT 50.812332 -1.649705 1,575 253 156 0
2021-10-27 15:34:34 GMT 50.814255 -1.638669 1,600 258 158 60
2021-10-27 15:34:24 GMT 50.816212 -1.628012 1,575 263 166 -60
2021-10-27 15:34:23 GMT 50.816212 -1.628012 1,575 267 152 0
2021-10-27 15:34:21 GMT 50.815994 -1.626252 1,575 266 163 -60
2021-10-27 15:34:19 GMT 50.816017 -1.624084 1,575 266 156 -60
2021-10-27 15:34:17 GMT 50.816120 -1.622176 1,575 265 151 -120
2021-10-27 15:34:07 GMT 50.816978 -1.599720 1,600 243 138 -420
2021-10-27 15:33:57 GMT 50.816978 -1.599720 1,600 243 138 -420
2021-10-27 15:33:56 GMT 50.816978 -1.599720 1,600 241 132 -840
2021-10-27 15:33:54 GMT 50.817173 -1.597968 1,600 218 128 -960
2021-10-27 15:33:45 GMT 50.818245 -1.588297 1,650 185 150 -1440
2021-10-27 15:33:35 GMT 50.823303 -1.582690 1,725 172 163 -1680
2021-10-27 15:33:34 GMT 50.823303 -1.582690 1,750 173 171 -1620
2021-10-27 15:33:25 GMT 50.830589 -1.582413 2,025 169 173 -1620
2021-10-27 15:33:24 GMT 50.837669 -1.585989 2,075 193 165 -1680
2021-10-27 15:33:15 GMT 50.837669 -1.585989 2,350 193 165 -1680
2021-10-27 15:33:14 GMT 50.837669 -1.585989 2,400 194 159 -1440
2021-10-27 15:33:04 GMT 50.846035 -1.586967 2,675 210 161 -1500
2021-10-27 15:33:03 GMT 50.846035 -1.586967 2,675 230 159 -1500
2021-10-27 15:33:01 GMT 50.853130 -1.579023 2,700 266 187 -1620
2021-10-27 15:32:52 GMT 50.853130 -1.579023 2,950 266 187 -1620
2021-10-27 15:32:51 GMT 50.853477 -1.578349 2,950 273 194 -1620
2021-10-27 15:32:40 GMT 50.855705 -1.566796 3,225 284 213 -1380
2021-10-27 15:32:39 GMT 50.855705 -1.566796 3,250 289 214 -1560
2021-10-27 15:32:30 GMT 50.853458 -1.551925 3,475 305 243 -1320
2021-10-27 15:32:27 GMT 50.852154 -1.548548 3,525 305 230 -1200
2021-10-27 15:32:26 GMT 50.852154 -1.548548 3,575 309 249 -960
2021-10-27 15:32:24 GMT 50.851025 -1.546393 3,600 318 286 -900
2021-10-27 15:32:22 GMT 50.849590 -1.543603 3,700 321 245 -540
2021-10-27 15:32:21 GMT 50.849590 -1.543603 3,750 333 326 -300
2021-10-27 15:32:19 GMT 50.848858 -1.541566 3,750 335 283 -240
2021-10-27 15:32:15 GMT 50.845154 -1.535296 3,825 344 251 -60
2021-10-27 15:32:12 GMT 50.840530 -1.532561 3,850 342 242 -60
2021-10-27 15:32:09 GMT 50.840210 -1.532429 3,875 348 261 0
2021-10-27 15:32:04 GMT 50.827347 -1.527559 3,875 354 256 0
2021-10-27 15:32:00 GMT 50.827316 -1.527552 3,850 358 283 -60
2021-10-27 15:31:57 GMT 50.827297 -1.527551 3,850 2 338 0
2021-10-27 15:31:55 GMT 50.827217 -1.527556 3,875 3 290 120
2021-10-27 15:31:53 GMT 50.824459 -1.527773 3,875 3 309 120
2021-10-27 15:31:52 GMT 50.822247 -1.527910 3,875 5 285 120
2021-10-27 15:31:47 GMT 50.816669 -1.528502 3,875 4 321 120
2021-10-27 15:31:45 GMT 50.813759 -1.528973 3,875 5 314 120
2021-10-27 15:31:43 GMT 50.813759 -1.528973 3,850 5 314 120
2021-10-27 15:31:42 GMT 50.813759 -1.528973 3,850 6 255 120
2021-10-27 15:31:40 GMT 50.811878 -1.529474 3,850 4 290 0
2021-10-27 15:31:38 GMT 50.808704 -1.529784 3,850 5 284 0
2021-10-27 15:31:35 GMT 50.806259 -1.530228 3,850 4 289 -120
2021-10-27 15:31:32 GMT 50.804329 -1.530416 3,850 4 287 -120
2021-10-27 15:31:30 GMT 50.801926 -1.530720 3,850 5 290 -120
2021-10-27 15:31:28 GMT 50.799347 -1.531122 3,850 5 267 -60
2021-10-27 15:31:23 GMT 50.793495 -1.531831 3,850 5 298 0
2021-10-27 15:31:22 GMT 50.793495 -1.531831 3,875 6 269 0
2021-10-27 15:31:20 GMT 50.791134 -1.532444 3,875 6 287 0
2021-10-27 15:31:19 GMT 50.791134 -1.532444 3,875 5 297 0
2021-10-27 15:31:17 GMT 50.788990 -1.532807 3,875 5 278 120
2021-10-27 15:31:14 GMT 50.784725 -1.533359 3,875 4 309 0
2021-10-27 15:31:13 GMT 50.784725 -1.533359 3,875 4 280 120
2021-10-27 15:31:11 GMT 50.782413 -1.533777 3,875 6 299 120
2021-10-27 15:31:09 GMT 50.779575 -1.534325 3,875 6 267 120
2021-10-27 15:31:08 GMT 50.779575 -1.534325 3,875 4 294 120
2021-10-27 15:31:05 GMT 50.775391 -1.534482 3,875 5 293 120
2021-10-27 15:31:04 GMT 50.775391 -1.534482 3,850 7 311 0
2021-10-27 15:31:02 GMT 50.772865 -1.535580 3,850 5 284 0
2021-10-27 15:31:01 GMT 50.772865 -1.535580 3,850 2 279 0
2021-10-27 15:30:58 GMT 50.768074 -1.535809 3,850 11 263 0
2021-10-27 15:30:57 GMT 50.763622 -1.536304 3,850 4 261 0
2021-10-27 15:30:54 GMT 50.763622 -1.536304 3,850 1 259 -60
2021-10-27 15:30:52 GMT 50.763622 -1.536304 3,850 1 259 -60
2021-10-27 15:30:49 GMT 50.760578 -1.536793 3,850 3 302 -120
2021-10-27 15:30:47 GMT 50.758060 -1.536879 3,850 4 283 -120
2021-10-27 15:30:45 GMT 50.755222 -1.537045 3,850 6 270 -120
2021-10-27 15:30:44 GMT 50.755222 -1.537045 3,850 3 284 -120
2021-10-27 15:30:42 GMT 50.753143 -1.536468 3,850 11 268 -120
2021-10-27 15:30:39 GMT 50.749123 -1.538183 3,875 5 281 0
2021-10-27 15:30:38 GMT 50.749123 -1.538183 3,875 4 279 120
2021-10-27 15:30:36 GMT 50.744167 -1.539010 3,875 3 284 0
2021-10-27 15:30:34 GMT 50.744167 -1.539010 3,875 3 284 0
2021-10-27 15:30:33 GMT 50.744167 -1.539010 3,875 3 287 0
2021-10-27 15:30:31 GMT 50.742256 -1.539375 3,875 1 286 0
2021-10-27 15:30:29 GMT 50.736927 -1.539706 3,875 5 299 -120
2021-10-27 15:30:27 GMT 50.736927 -1.539706 3,850 5 299 -120
2021-10-27 15:30:26 GMT 50.736927 -1.539706 3,850 3 312 0
2021-10-27 15:30:24 GMT 50.734119 -1.539870 3,875 3 287 120
2021-10-27 15:30:23 GMT 50.734119 -1.539870 3,875 9 277 120
2021-10-27 15:30:21 GMT 50.732124 -1.541583 3,875 357 292 120
2021-10-27 15:30:19 GMT 50.729755 -1.541154 3,875 359 303 120
2021-10-27 15:30:17 GMT 50.726749 -1.540777 3,875 3 302 120
2021-10-27 15:30:16 GMT 50.726749 -1.540777 3,850 3 282 -120
2021-10-27 15:30:14 GMT 50.724689 -1.541069 3,850 2 302 -120
2021-10-27 15:30:12 GMT 50.720131 -1.541243 3,850 2 273 -120
2021-10-27 15:30:07 GMT 50.715748 -1.541644 3,850 0 293 -120
2021-10-27 15:30:04 GMT 50.713089 -1.541783 3,850 358 278 0
2021-10-27 15:30:01 GMT 50.710938 -1.541858 3,875 3 325 0
2021-10-27 15:29:59 GMT 50.708241 -1.541694 3,875 1 314 0
2021-10-27 15:29:58 GMT 50.708241 -1.541694 3,875 4 279 0
2021-10-27 15:29:56 GMT 50.706383 -1.541435 3,875 9 322 0
2021-10-27 15:29:54 GMT 50.703682 -1.542781 3,875 4 285 0
2021-10-27 15:29:51 GMT 50.698612 -1.543406 3,875 5 305 0
2021-10-27 15:29:48 GMT 50.697205 -1.543500 3,875 3 285 0
2021-10-27 15:29:45 GMT 50.694363 -1.543824 3,875 4 276 0
2021-10-27 15:29:43 GMT 50.692451 -1.544307 3,875 5 263 0
2021-10-27 15:29:41 GMT 50.688183 -1.544280 3,875 3 318 0
2021-10-27 15:29:39 GMT 50.688183 -1.544280 3,875 3 318 0
2021-10-27 15:29:37 GMT 50.685791 -1.544619 3,875 3 294 0
2021-10-27 15:29:35 GMT 50.683514 -1.545039 3,875 2 293 0
2021-10-27 15:29:34 GMT 50.683514 -1.545039 3,875 0 281 0
2021-10-27 15:29:32 GMT 50.681141 -1.545230 3,875 358 283 0
2021-10-27 15:29:29 GMT 50.675842 -1.545296 3,875 351 301 120
2021-10-27 15:29:28 GMT 50.675842 -1.545296 3,875 349 278 120
2021-10-27 15:29:27 GMT 50.672848 -1.545004 3,875 341 252 120
2021-10-27 15:29:24 GMT 50.672848 -1.545004 3,875 341 252 120
2021-10-27 15:29:22 GMT 50.670673 -1.544736 3,875 331 312 120
2021-10-27 15:29:19 GMT 50.667767 -1.542241 3,875 330 267 120
2021-10-27 15:29:16 GMT 50.666164 -1.540665 3,850 326 290 0
2021-10-27 15:29:14 GMT 50.663418 -1.538499 3,850 318 227 0
2021-10-27 15:29:12 GMT 50.661289 -1.535970 3,850 308 181 0
2021-10-27 15:29:09 GMT 50.660000 -1.533356 3,850 291 211 0
2021-10-27 15:29:07 GMT 50.660000 -1.533356 3,850 290 198 0
2021-10-27 15:29:05 GMT 50.658363 -1.530358 3,850 267 203 -60
2021-10-27 15:29:03 GMT 50.658363 -1.530358 3,850 267 203 -60
2021-10-27 15:28:54 GMT 50.656509 -1.515781 3,850 249 209 -60
2021-10-27 15:28:53 GMT 50.656509 -1.515781 3,850 247 195 0
2021-10-27 15:28:46 GMT 50.657368 -1.506916 3,850 240 195 -60
2021-10-27 15:28:41 GMT 50.659790 -1.500091 3,875 239 188 0
2021-10-27 15:28:33 GMT 50.663578 -1.489478 3,875 240 186 0
2021-10-27 15:28:22 GMT 50.667557 -1.479005 3,875 240 168 60
2021-10-27 15:28:21 GMT 50.667557 -1.479005 3,875 240 175 0
2021-10-27 15:28:12 GMT 50.670815 -1.468908 3,875 237 198 60
2021-10-27 15:28:04 GMT 50.674469 -1.460581 3,850 238 188 0
2021-10-27 15:28:03 GMT 50.674469 -1.460581 3,850 237 172 0
2021-10-27 15:27:54 GMT 50.678795 -1.449542 3,850 239 189 -60
2021-10-27 15:27:53 GMT 50.682865 -1.440043 3,850 238 203 -60
2021-10-27 15:27:43 GMT 50.682865 -1.440043 3,850 240 209 -60
2021-10-27 15:27:42 GMT 50.682865 -1.440043 3,850 240 209 -60
2021-10-27 15:27:32 GMT 50.688786 -1.423268 3,875 236 189 60
2021-10-27 15:27:21 GMT 50.692917 -1.412565 3,875 231 174 0
2021-10-27 15:27:20 GMT 50.692917 -1.412565 3,875 224 187 0
2021-10-27 15:27:18 GMT 50.698792 -1.399391 3,875 206 204 0
2021-10-27 15:27:08 GMT 50.698792 -1.399391 3,875 206 204 0
2021-10-27 15:27:07 GMT 50.698792 -1.399391 3,850 205 192 0
2021-10-27 15:26:57 GMT 50.706661 -1.392197 3,875 199 190 0
2021-10-27 15:26:47 GMT 50.714581 -1.387821 3,875 199 184 0
2021-10-27 15:26:38 GMT 50.720982 -1.384219 3,850 199 198 0
2021-10-27 15:26:37 GMT 50.720982 -1.384219 3,850 198 191 0
2021-10-27 15:26:28 GMT 50.728989 -1.380064 3,850 199 205 0
2021-10-27 15:26:27 GMT 50.728989 -1.380064 3,850 199 194 0
2021-10-27 15:26:17 GMT 50.737621 -1.375242 3,850 199 198 0
2021-10-27 15:26:07 GMT 50.745621 -1.370823 3,875 200 179 -60
2021-10-27 15:26:06 GMT 50.745621 -1.370823 3,875 199 197 0
2021-10-27 15:26:04 GMT 50.747131 -1.370323 3,875 201 185 0
2021-10-27 15:25:55 GMT 50.754360 -1.366020 3,850 198 195 -60
2021-10-27 15:25:54 GMT 50.762196 -1.361024 3,850 198 198 0
2021-10-27 15:25:45 GMT 50.762196 -1.361024 3,875 198 198 0
2021-10-27 15:25:44 GMT 50.770622 -1.357637 3,875 199 191 60
2021-10-27 15:25:34 GMT 50.770622 -1.357637 3,875 199 191 60
2021-10-27 15:25:33 GMT 50.771919 -1.356984 3,875 199 189 0
2021-10-27 15:25:23 GMT 50.779446 -1.352966 3,875 199 196 -60
2021-10-27 15:25:12 GMT 50.793839 -1.344785 3,850 199 190 60
2021-10-27 15:25:04 GMT 50.793839 -1.344785 3,875 199 209 60
2021-10-27 15:24:54 GMT 50.801437 -1.339815 3,850 195 223 0
2021-10-27 15:24:53 GMT 50.801437 -1.339815 3,850 196 234 -60
2021-10-27 15:24:51 GMT 50.812977 -1.334145 3,850 199 195 -60
2021-10-27 15:24:41 GMT 50.812977 -1.334145 3,850 199 195 -60
2021-10-27 15:24:38 GMT 50.814953 -1.332940 3,850 199 194 -60
2021-10-27 15:24:27 GMT 50.822197 -1.328990 3,875 200 201 0
2021-10-27 15:24:17 GMT 50.830135 -1.324617 3,875 201 201 0
2021-10-27 15:24:08 GMT 50.844814 -1.315693 3,875 201 200 60
2021-10-27 15:23:59 GMT 50.844814 -1.315693 3,875 201 200 60
2021-10-27 15:23:56 GMT 50.846897 -1.314190 3,875 199 194 0
2021-10-27 15:23:51 GMT 50.858013 -1.307493 3,875 199 210 60
2021-10-27 15:23:47 GMT 50.858025 -1.307488 3,875 197 204 0
2021-10-27 15:23:37 GMT 50.861046 -1.306148 3,850 200 203 -60
2021-10-27 15:23:28 GMT 50.868675 -1.301397 3,875 199 207 0
2021-10-27 15:23:17 GMT 50.876404 -1.297113 3,875 199 192 60
2021-10-27 15:23:09 GMT 50.883877 -1.292506 3,875 200 196 60
2021-10-27 15:23:08 GMT 50.889278 -1.289511 3,875 200 192 60
2021-10-27 15:23:05 GMT 50.889278 -1.289511 3,875 200 192 60
2021-10-27 15:22:56 GMT 50.892120 -1.287865 3,850 200 203 0
2021-10-27 15:22:55 GMT 50.892120 -1.287865 3,850 200 192 0
2021-10-27 15:22:46 GMT 50.900269 -1.283306 3,850 199 202 -60
2021-10-27 15:22:45 GMT 50.900269 -1.283306 3,850 200 193 -60
2021-10-27 15:22:35 GMT 50.908558 -1.277863 3,850 200 199 -60
2021-10-27 15:22:34 GMT 50.908558 -1.277863 3,850 198 190 -60
2021-10-27 15:22:25 GMT 50.916245 -1.273994 3,875 200 202 0
2021-10-27 15:22:16 GMT 50.923077 -1.269805 3,875 201 200 0
2021-10-27 15:22:15 GMT 50.923077 -1.269805 3,875 201 198 0
2021-10-27 15:22:06 GMT 50.930908 -1.264786 3,875 201 189 0
2021-10-27 15:22:03 GMT 50.932068 -1.264246 3,875 195 204 0
2021-10-27 15:21:54 GMT 50.939743 -1.259258 3,875 188 185 0
2021-10-27 15:21:53 GMT 50.939743 -1.259258 3,875 177 201 0
2021-10-27 15:21:43 GMT 50.948879 -1.257404 3,850 165 214 0
2021-10-27 15:21:33 GMT 50.957291 -1.260821 3,875 161 200 60
2021-10-27 15:21:30 GMT 50.958576 -1.262009 3,875 162 197 0
2021-10-27 15:21:21 GMT 50.966179 -1.265371 3,850 160 206 0
2021-10-27 15:21:11 GMT 50.974529 -1.269938 3,850 160 200 0
2021-10-27 15:21:10 GMT 50.974529 -1.269938 3,850 161 214 0
2021-10-27 15:21:01 GMT 50.983025 -1.274419 3,850 160 213 -60
2021-10-27 15:20:53 GMT 50.989525 -1.278248 3,875 162 206 60
2021-10-27 15:20:43 GMT 50.998856 -1.283170 3,875 162 214 60
2021-10-27 15:20:42 GMT 50.998856 -1.283170 3,875 163 204 60
2021-10-27 15:20:38 GMT 51.001259 -1.284133 3,850 161 204 0
2021-10-27 15:20:29 GMT 51.009205 -1.288356 3,850 161 194 -60
2021-10-27 15:20:28 GMT 51.009205 -1.288356 3,850 162 204 -60
2021-10-27 15:20:19 GMT 51.017086 -1.292775 3,850 160 220 -60
2021-10-27 15:20:09 GMT 51.025192 -1.296241 3,875 162 223 60
2021-10-27 15:20:01 GMT 51.032215 -1.300472 3,875 161 203 60
2021-10-27 15:19:52 GMT 51.039707 -1.304384 3,875 162 212 60
2021-10-27 15:19:42 GMT 51.047897 -1.308057 3,850 162 210 0
2021-10-27 15:19:41 GMT 51.055485 -1.312565 3,875 153 235 -60
2021-10-27 15:19:33 GMT 51.062481 -1.316369 3,850 136 242 60
2021-10-27 15:19:25 GMT 51.062481 -1.316369 3,875 136 237 0
2021-10-27 15:19:15 GMT 51.071922 -1.326355 3,850 125 242 -60
2021-10-27 15:19:14 GMT 51.071922 -1.326355 3,850 122 241 -60
2021-10-27 15:19:05 GMT 51.077152 -1.339424 3,875 106 305 0
2021-10-27 15:19:04 GMT 51.077152 -1.339424 3,850 97 271 120
2021-10-27 15:19:02 GMT 51.077187 -1.339531 3,875 101 287 120
2021-10-27 15:19:00 GMT 51.079441 -1.346887 3,875 89 296 120
2021-10-27 15:18:58 GMT 51.079441 -1.346887 3,875 89 296 120
2021-10-27 15:18:55 GMT 51.080391 -1.353822 3,875 74 275 0
2021-10-27 15:18:53 GMT 51.078754 -1.356561 3,875 74 290 0
2021-10-27 15:18:50 GMT 51.078945 -1.365227 3,850 58 307 0
2021-10-27 15:18:48 GMT 51.078945 -1.365227 3,850 58 307 0
2021-10-27 15:18:46 GMT 51.079033 -1.368701 3,850 49 302 0
2021-10-27 15:18:41 GMT 51.074295 -1.377107 3,850 50 288 0
2021-10-27 15:18:40 GMT 51.074295 -1.377107 3,850 50 288 0
2021-10-27 15:18:38 GMT 51.073250 -1.380188 3,850 44 315 0
2021-10-27 15:18:35 GMT 51.069283 -1.386903 3,850 37 321 -120
2021-10-27 15:18:34 GMT 51.069283 -1.386903 3,850 37 321 -120
2021-10-27 15:18:33 GMT 51.069283 -1.386903 3,850 34 297 -120
2021-10-27 15:18:31 GMT 51.065792 -1.391358 3,850 31 319 -120
2021-10-27 15:18:29 GMT 51.063297 -1.393652 3,850 31 313 -120
2021-10-27 15:18:27 GMT 51.063297 -1.393652 3,850 31 313 -120
2021-10-27 15:18:25 GMT 51.060696 -1.396228 3,850 29 321 -120
2021-10-27 15:18:24 GMT 51.060696 -1.396228 3,850 29 321 -120
2021-10-27 15:18:22 GMT 51.058762 -1.398073 3,875 30 302 0
2021-10-27 15:18:20 GMT 51.056976 -1.400221 3,875 26 328 0
2021-10-27 15:18:18 GMT 51.054707 -1.401810 3,875 29 306 0
2021-10-27 15:18:16 GMT 51.049686 -1.406134 3,875 27 300 0
2021-10-27 15:18:14 GMT 51.049686 -1.406134 3,875 27 300 0
2021-10-27 15:18:13 GMT 51.049686 -1.406134 3,875 26 334 0
2021-10-27 15:18:10 GMT 51.045666 -1.409461 3,875 28 328 0
2021-10-27 15:18:09 GMT 51.045666 -1.409461 3,875 26 297 0
2021-10-27 15:18:07 GMT 51.043900 -1.410933 3,875 27 291 60
2021-10-27 15:18:04 GMT 51.040012 -1.413599 3,875 29 290 60
2021-10-27 15:18:01 GMT 51.035137 -1.417866 3,875 28 308 240
2021-10-27 15:18:00 GMT 51.035137 -1.417866 3,875 27 307 240
2021-10-27 15:17:59 GMT 51.033875 -1.419403 3,875 28 292 180
2021-10-27 15:17:54 GMT 51.026398 -1.425252 3,850 30 293 360
2021-10-27 15:17:51 GMT 51.026398 -1.425252 3,850 30 293 360
2021-10-27 15:17:49 GMT 51.024086 -1.427048 3,850 31 303 480
2021-10-27 15:17:48 GMT 51.024086 -1.427048 3,825 29 329 480
2021-10-27 15:17:46 GMT 51.022285 -1.429303 3,825 26 322 600
2021-10-27 15:17:44 GMT 51.019974 -1.431265 3,825 27 302 720
2021-10-27 15:17:42 GMT 51.018158 -1.433268 3,800 26 293 660
2021-10-27 15:17:40 GMT 51.015965 -1.434810 3,775 24 307 840
2021-10-27 15:17:37 GMT 51.011292 -1.437990 3,725 24 296 900
2021-10-27 15:17:34 GMT 51.009426 -1.439662 3,700 29 260 840
2021-10-27 15:17:32 GMT 51.008209 -1.441326 3,675 24 282 840
2021-10-27 15:17:29 GMT 51.004063 -1.443610 3,675 25 280 960
2021-10-27 15:17:28 GMT 51.004063 -1.443610 3,625 26 264 840
2021-10-27 15:17:22 GMT 50.996975 -1.450175 3,500 26 298 780
2021-10-27 15:17:21 GMT 50.996975 -1.450175 3,500 20 281 780
2021-10-27 15:17:18 GMT 50.993610 -1.452160 3,500 20 276 900
2021-10-27 15:17:16 GMT 50.991253 -1.453554 3,475 12 288 960
2021-10-27 15:17:15 GMT 50.991253 -1.453554 3,425 15 272 780
2021-10-27 15:17:11 GMT 50.986465 -1.456925 3,400 5 280 900
2021-10-27 15:17:09 GMT 50.984039 -1.458037 3,375 358 298 840
2021-10-27 15:17:08 GMT 50.984039 -1.458037 3,300 358 298 840
2021-10-27 15:17:05 GMT 50.979492 -1.458214 3,275 357 285 900
2021-10-27 15:17:04 GMT 50.979492 -1.458214 3,275 354 254 780
2021-10-27 15:17:02 GMT 50.977264 -1.457697 3,225 346 287 720
2021-10-27 15:16:57 GMT 50.971149 -1.457151 3,175 342 279 660
2021-10-27 15:16:56 GMT 50.971149 -1.457151 3,075 342 279 780
2021-10-27 15:16:55 GMT 50.971149 -1.457151 3,075 337 279 600
2021-10-27 15:16:51 GMT 50.965473 -1.452773 3,100 340 286 600
2021-10-27 15:16:50 GMT 50.965473 -1.452773 3,075 341 239 720
2021-10-27 15:16:47 GMT 50.962837 -1.451271 3,050 342 269 720
2021-10-27 15:16:44 GMT 50.958717 -1.449058 3,000 341 316 480
2021-10-27 15:16:43 GMT 50.958717 -1.449058 2,975 341 284 480
2021-10-27 15:16:40 GMT 50.955257 -1.447377 2,950 341 267 360
2021-10-27 15:16:36 GMT 50.951820 -1.445788 2,900 339 272 60

Making use of Plane Finder data

You are free to use the raw flight data, aircraft information and images provided in this report for your own purposes provided the data is correctly attributed to Plane Finder. We ask that you please credit Plane Finder and link to planefinder.net in close proximity to the content.

Optionally one of the following logos (no smaller then 150x24px) can be used and must link to planefinder.net

Embedding the Plane Finder map

You are welcome to embed the Plane Finder playback map on your website to offer visitors a more interactive experience. We suggest using the following HTML code:

<iframe src="//planefinder.net/data/report/LM326-G-SAJG-7700-squawk-2021-10-27/map" width="800" height="600" seamless="seamless"></iframe>

Where our data comes from

Plane Finder has a global network of data feeds and antenna radars that receive data broadcast directly from aircraft. The primary technologies used are ADS-B and MLAT. We also show feeds from the FAA and a FLARM glider feed.

Click here to find out more about the Plane Finder network.

How we collect our data